map of KTR home
KTR - Airport
Location
City:  Katherine, Northern Territory, Australia
Name:Tindal
ICAO:YPTN
IATA:KTR

Details
Type:Airport (Aerodrome, Airfield)
Use:Military
Latitude:1431'16"S (-14.521110)
Longitude:13222'40"E (132.377778)
Datum:WGS 1984
Elevation:443 ft (135 m)
Variation:3.27E (WMM2015 magnetic declination)
-0.08 annual change
Runways:1
Longest:9003 × 150 ft (2744 × 45.5 m), paved

Time
Time Zone:UTC+9:30
Local Time:

Weather
METAR:YPTN 221400Z AUTO 25005KT 220V300 9999 // OVC008 26/25 Q1008 RERA
TAF:YPTN 221119Z 2212/2312 30010KT 9999 SCT040
FM221800 VRB03KT 9999 BKN010
FM230000 27008KT 9999 SCT030 PROB30
TEMPO 2212/2221 VRB20G35KT 1000 TSRA BKN010 SCT030CB PROB30
TEMPO 2303/2312 VRB20G35KT 1000 TSRA BKN010 SCT030CB

Related Locations
Nearby:
Farthest:CAY: 11693 mi / 18818 km
Cayenne [Rochambeau], GF

Find:

   beyond  
but within

Other Information
Maps:
NOTAMs:
Links:
Sources:

  
flag of Australia
flag of Northern Territory
  

Sectional Chart

Flight Planning
at skyvector.com

Satellite Image

Google Maps Satellite view

 

Copyright © 2004-2017 Karl L. Swartz. All rights reserved.
The Great Circle Mapper name and logo are trademarks of the Great Circle Mapper.
All other trademarks mentioned herein belong to their respective owners.
Please see credits for attibutions and further copyright information.

  Follow gcmap on Facebook Follow gcmap on Twitter Follow gcmap on Google+ GCmap on LinkedIn

hCard Microformat

Geo Microformat